createdAt,value
2019-03-28T00:00:40.418Z,2.10
2019-03-28T00:03:08.831Z,2.03
2019-03-28T00:05:37.235Z,1.97
2019-03-28T00:08:05.651Z,2.27
2019-03-28T00:10:34.056Z,1.90
2019-03-28T00:13:02.468Z,1.97
2019-03-28T00:15:30.973Z,1.90
2019-03-28T00:17:59.391Z,1.90
2019-03-28T00:20:27.790Z,1.90
2019-03-28T00:23:12.905Z,2.10
2019-03-28T00:25:41.309Z,2.00
2019-03-28T00:28:09.732Z,2.10
2019-03-28T00:30:38.128Z,2.10
2019-03-28T00:33:06.542Z,2.13
2019-03-28T00:35:35.001Z,2.20
2019-03-28T00:38:03.424Z,1.97
2019-03-28T00:40:31.816Z,2.00
2019-03-28T00:43:00.361Z,1.90
2019-03-28T00:45:29.038Z,2.10
2019-03-28T00:47:57.467Z,2.00
2019-03-28T00:50:25.861Z,1.80
2019-03-28T00:52:54.270Z,1.90
2019-03-28T00:55:22.680Z,1.80
2019-03-28T00:57:51.079Z,1.63
2019-03-28T01:00:19.972Z,2.10
2019-03-28T01:02:48.362Z,2.10
2019-03-28T01:05:17.154Z,2.00
2019-03-28T01:07:45.596Z,2.00
2019-03-28T01:10:14.025Z,2.10
2019-03-28T01:12:42.431Z,1.80
2019-03-28T01:15:10.849Z,1.83
2019-03-28T01:17:39.334Z,2.20
2019-03-28T01:20:07.687Z,2.00
2019-03-28T01:22:36.106Z,2.30
2019-03-28T01:25:05.203Z,2.03
2019-03-28T01:27:33.700Z,1.93
2019-03-28T01:30:02.135Z,1.90
2019-03-28T01:32:30.547Z,1.70
2019-03-28T01:34:59.168Z,2.07
2019-03-28T01:37:29.226Z,2.10
2019-03-28T01:39:57.772Z,1.97
2019-03-28T01:42:26.215Z,1.90
2019-03-28T01:44:54.669Z,1.90
2019-03-28T01:47:23.143Z,1.90
2019-03-28T01:49:51.698Z,2.10
2019-03-28T01:52:20.154Z,1.97
2019-03-28T01:54:48.569Z,1.87
2019-03-28T01:57:17.057Z,2.00
2019-03-28T01:59:46.311Z,2.00
2019-03-28T02:02:14.763Z,2.10
2019-03-28T02:04:43.172Z,2.10
2019-03-28T02:07:11.575Z,2.00
2019-03-28T02:09:39.993Z,1.90
2019-03-28T02:12:08.393Z,2.20
2019-03-28T02:14:36.822Z,1.87
2019-03-28T02:17:05.231Z,2.07
2019-03-28T02:19:33.669Z,2.37
2019-03-28T02:22:02.060Z,2.13
2019-03-28T02:24:30.472Z,2.30
2019-03-28T02:26:59.313Z,2.10
2019-03-28T02:29:27.742Z,1.90
2019-03-28T02:31:56.153Z,2.20
2019-03-28T02:34:24.548Z,2.30
2019-03-28T02:36:52.962Z,2.13
2019-03-28T02:39:21.365Z,1.80
2019-03-28T02:41:50.017Z,2.10
2019-03-28T02:44:18.495Z,1.90
2019-03-28T02:46:46.930Z,1.70
2019-03-28T02:49:15.339Z,2.17
2019-03-28T02:51:43.788Z,1.80
2019-03-28T02:54:12.199Z,1.90
2019-03-28T02:56:41.723Z,1.90
2019-03-28T02:59:10.441Z,1.93
2019-03-28T03:01:38.830Z,2.07
2019-03-28T03:04:07.220Z,2.00
2019-03-28T03:06:35.631Z,1.97
2019-03-28T03:09:06.133Z,2.00
2019-03-28T03:11:35.629Z,1.97
2019-03-28T03:14:04.365Z,2.00
2019-03-28T03:16:32.770Z,2.00
2019-03-28T03:19:01.177Z,1.70
2019-03-28T03:21:29.602Z,1.97
2019-03-28T03:23:57.980Z,1.87
2019-03-28T03:26:26.428Z,2.10
2019-03-28T03:28:54.848Z,2.00
2019-03-28T03:31:24.882Z,1.97
2019-03-28T03:33:53.448Z,2.03
2019-03-28T03:36:21.867Z,1.90
2019-03-28T03:38:50.260Z,2.20
2019-03-28T03:41:18.690Z,2.20
2019-03-28T03:43:47.180Z,2.07
2019-03-28T03:46:15.595Z,2.00
2019-03-28T03:48:43.995Z,2.17
2019-03-28T03:51:12.426Z,2.03
2019-03-28T03:53:40.818Z,2.20
2019-03-28T03:56:09.236Z,2.00
2019-03-28T03:58:37.628Z,2.13
2019-03-28T04:01:07.067Z,2.00
2019-03-28T04:03:35.477Z,2.00
2019-03-28T04:06:03.879Z,2.30
2019-03-28T04:08:32.280Z,2.17
2019-03-28T04:11:00.677Z,2.10
2019-03-28T04:13:29.204Z,2.10
2019-03-28T04:15:57.600Z,2.20
2019-03-28T04:18:26.016Z,2.30
2019-03-28T04:20:54.422Z,2.00
2019-03-28T04:23:22.832Z,2.37
2019-03-28T04:25:51.231Z,2.27
2019-03-28T04:28:31.393Z,2.17
2019-03-28T04:30:49.700Z,2.20
2019-03-28T04:33:18.111Z,2.40
2019-03-28T04:35:46.623Z,2.30
2019-03-28T04:38:15.138Z,2.10
2019-03-28T04:40:43.538Z,1.97
2019-03-28T04:43:11.956Z,2.17
2019-03-28T04:45:40.363Z,2.10
2019-03-28T04:48:08.778Z,2.10
2019-03-28T04:50:37.205Z,2.20
2019-03-28T04:53:05.623Z,2.47
2019-03-28T04:55:34.027Z,2.10
2019-03-28T04:58:02.439Z,2.17
2019-03-28T05:00:31.232Z,2.13
2019-03-28T05:02:59.642Z,2.20
2019-03-28T05:05:28.036Z,2.17
2019-03-28T05:07:56.451Z,2.13
2019-03-28T05:10:24.863Z,2.10
2019-03-28T05:12:53.279Z,2.50
2019-03-28T05:15:21.683Z,2.20
2019-03-28T05:17:50.115Z,2.00
2019-03-28T05:20:18.518Z,2.10
2019-03-28T05:22:47.001Z,2.20
2019-03-28T05:25:15.409Z,2.30
2019-03-28T05:27:43.827Z,2.20
2019-03-28T05:30:12.231Z,2.30
2019-03-28T05:32:41.773Z,2.23
2019-03-28T05:35:10.627Z,2.30
2019-03-28T05:37:39.317Z,2.43
2019-03-28T05:40:08.221Z,2.33
2019-03-28T05:42:36.649Z,2.30
2019-03-28T05:45:06.088Z,2.27
2019-03-28T05:47:34.512Z,2.20
2019-03-28T05:50:02.924Z,2.13
2019-03-28T05:52:31.319Z,2.43
2019-03-28T05:54:59.744Z,2.50
2019-03-28T05:57:28.200Z,2.70
2019-03-28T05:59:56.564Z,2.40
2019-03-28T06:02:28.824Z,2.07
2019-03-28T06:04:57.454Z,2.20
2019-03-28T06:07:25.870Z,2.40
2019-03-28T06:09:54.300Z,2.30
2019-03-28T06:12:22.818Z,2.70
2019-03-28T06:14:51.368Z,2.47
2019-03-28T06:17:19.760Z,2.50
2019-03-28T06:19:48.184Z,2.30
2019-03-28T06:22:16.580Z,2.70
2019-03-28T06:24:45.004Z,3.00
2019-03-28T06:27:13.510Z,3.20
2019-03-28T06:29:41.930Z,3.57
2019-03-28T06:32:10.339Z,3.60
2019-03-28T06:34:38.754Z,3.80
2019-03-28T06:37:07.154Z,3.37
2019-03-28T06:39:36.564Z,3.17
2019-03-28T06:42:05.169Z,3.40
2019-03-28T06:44:33.638Z,3.40
2019-03-28T06:47:02.041Z,3.80
2019-03-28T06:49:30.458Z,3.63
2019-03-28T06:51:58.868Z,3.40
2019-03-28T06:54:27.268Z,3.80
2019-03-28T06:56:55.683Z,3.47
2019-03-28T06:59:36.282Z,3.40
2019-03-28T07:01:54.141Z,3.00
2019-03-28T07:04:22.557Z,3.53
2019-03-28T07:06:50.963Z,3.60
2019-03-28T07:09:19.361Z,6.33
2019-03-28T07:11:47.780Z,7.10
2019-03-28T07:14:16.337Z,7.50
2019-03-28T07:16:44.760Z,7.50
2019-03-28T07:19:13.153Z,7.60
2019-03-28T07:21:41.568Z,7.83
2019-03-28T07:24:09.967Z,7.47
2019-03-28T07:26:38.384Z,8.57
2019-03-28T07:29:06.779Z,8.57
2019-03-28T07:31:35.633Z,8.10
2019-03-28T07:34:04.191Z,8.10
2019-03-28T07:36:32.603Z,8.13
2019-03-28T07:39:01.005Z,8.07
2019-03-28T07:41:29.409Z,8.37
2019-03-28T07:43:57.817Z,7.80
2019-03-28T07:46:26.225Z,7.50
2019-03-28T07:48:54.641Z,8.47
2019-03-28T07:51:23.041Z,7.63
2019-03-28T07:53:51.451Z,7.30
2019-03-28T07:56:19.858Z,7.60
2019-03-28T07:58:48.282Z,8.77
2019-03-28T08:01:18.254Z,7.83
2019-03-28T08:03:46.805Z,8.30
2019-03-28T08:06:15.217Z,7.63
2019-03-28T08:08:44.243Z,7.30
2019-03-28T08:11:12.756Z,7.77
2019-03-28T08:13:41.422Z,7.87
2019-03-28T08:16:09.831Z,6.83
2019-03-28T08:18:38.253Z,7.93
2019-03-28T08:21:06.651Z,7.03
2019-03-28T08:23:35.548Z,7.53
2019-03-28T08:26:03.964Z,7.47
2019-03-28T08:28:32.378Z,7.13
2019-03-28T08:31:00.780Z,7.47
2019-03-28T08:33:29.201Z,7.03
2019-03-28T08:35:57.603Z,6.80
2019-03-28T08:38:26.392Z,7.20
2019-03-28T08:40:54.794Z,6.97
2019-03-28T08:43:23.223Z,7.07
2019-03-28T08:45:51.629Z,6.47
2019-03-28T08:48:20.021Z,6.50
2019-03-28T08:50:48.463Z,6.53
2019-03-28T08:53:16.911Z,6.27
2019-03-28T08:55:45.321Z,7.20
2019-03-28T08:58:13.736Z,7.30
2019-03-28T09:00:51.592Z,6.90
2019-03-28T09:03:12.275Z,7.53
2019-03-28T09:05:40.698Z,6.97
2019-03-28T09:08:09.093Z,7.50
2019-03-28T09:10:37.519Z,7.17
2019-03-28T09:13:06.098Z,7.27
2019-03-28T09:15:43.479Z,7.63
2019-03-28T09:18:05.237Z,7.90
2019-03-28T09:20:33.651Z,7.53
2019-03-28T09:23:02.057Z,7.73
2019-03-28T09:25:30.473Z,7.20
2019-03-28T09:27:58.885Z,7.37
2019-03-28T09:30:47.565Z,7.43
2019-03-28T09:33:06.009Z,7.00
2019-03-28T09:35:34.440Z,6.90
2019-03-28T09:38:02.969Z,7.20
2019-03-28T09:40:31.389Z,6.23
2019-03-28T09:42:59.784Z,6.87
2019-03-28T09:45:28.459Z,7.20
2019-03-28T09:47:56.857Z,6.77
2019-03-28T09:50:25.271Z,6.53
2019-03-28T09:52:53.845Z,5.80
2019-03-28T09:55:22.242Z,6.03
2019-03-28T09:57:50.661Z,5.57
2019-03-28T10:00:19.229Z,5.60
2019-03-28T10:02:47.755Z,6.07
2019-03-28T10:05:16.170Z,5.40
2019-03-28T10:07:44.588Z,6.17
2019-03-28T10:10:12.998Z,6.07
2019-03-28T10:12:43.864Z,7.27
2019-03-28T10:15:11.459Z,7.30
2019-03-28T10:17:42.481Z,7.63
2019-03-28T10:20:10.206Z,8.40
2019-03-28T10:22:38.642Z,8.83
2019-03-28T10:25:07.038Z,9.20
2019-03-28T10:27:35.468Z,8.87
2019-03-28T10:30:08.684Z,9.47
2019-03-28T10:32:37.106Z,9.30
2019-03-28T10:35:07.151Z,9.63
2019-03-28T10:37:35.721Z,9.17
2019-03-28T10:40:07.061Z,9.63
2019-03-28T10:42:35.476Z,9.63
2019-03-28T10:45:06.209Z,9.30
2019-03-28T10:47:34.718Z,9.73
2019-03-28T10:50:04.184Z,9.60
2019-03-28T10:52:33.406Z,9.57
2019-03-28T10:55:01.827Z,9.47
2019-03-28T10:57:31.843Z,8.83
2019-03-28T11:00:00.323Z,9.60
2019-03-28T11:02:29.117Z,9.43
2019-03-28T11:04:57.519Z,9.33
2019-03-28T11:07:25.917Z,8.73
2019-03-28T11:09:54.610Z,9.43
2019-03-28T11:12:23.028Z,10.20
2019-03-28T11:14:51.442Z,9.20
2019-03-28T11:17:19.853Z,9.37
2019-03-28T11:19:48.282Z,10.07
2019-03-28T11:22:16.686Z,9.07
2019-03-28T11:24:46.480Z,8.83
2019-03-28T11:27:15.017Z,9.17
2019-03-28T11:29:43.446Z,9.57
2019-03-28T11:32:11.846Z,9.53
2019-03-28T11:34:40.814Z,8.63
2019-03-28T11:37:14.930Z,9.53
2019-03-28T11:39:39.368Z,9.00
2019-03-28T11:42:07.772Z,9.40
2019-03-28T11:44:36.204Z,9.00
2019-03-28T11:47:04.580Z,9.23
2019-03-28T11:49:33.005Z,8.80
2019-03-28T11:52:01.404Z,8.57
2019-03-28T11:54:29.824Z,8.87
2019-03-28T11:56:58.234Z,9.00
2019-03-28T11:59:26.649Z,8.80
2019-03-28T12:02:20.298Z,8.33
2019-03-28T12:04:44.576Z,7.40
2019-03-28T12:07:12.982Z,7.73
2019-03-28T12:09:41.463Z,7.77
2019-03-28T12:12:09.862Z,7.37
2019-03-28T12:14:38.280Z,7.97
2019-03-28T12:17:06.680Z,8.00
2019-03-28T12:19:35.098Z,7.23
2019-03-28T12:22:03.493Z,7.43
2019-03-28T12:24:31.916Z,7.53
2019-03-28T12:27:00.330Z,7.47
2019-03-28T12:29:28.741Z,7.37
2019-03-28T12:31:57.147Z,8.10
2019-03-28T12:34:25.560Z,7.57
2019-03-28T12:36:53.988Z,8.30
2019-03-28T12:39:22.394Z,7.93
2019-03-28T12:41:50.822Z,7.67
2019-03-28T12:44:19.324Z,8.57
2019-03-28T12:47:07.176Z,7.70
2019-03-28T12:49:35.588Z,7.73
2019-03-28T12:52:04.008Z,7.80
2019-03-28T12:54:32.410Z,7.67
2019-03-28T12:57:00.837Z,7.37
2019-03-28T12:59:29.240Z,7.33
2019-03-28T13:01:57.665Z,8.23
2019-03-28T13:04:26.063Z,7.80
2019-03-28T13:06:54.488Z,7.17
2019-03-28T13:09:22.894Z,7.20
2019-03-28T13:11:51.300Z,7.50
2019-03-28T13:14:19.716Z,6.93
2019-03-28T13:16:48.120Z,7.37
2019-03-28T13:19:16.552Z,6.80
2019-03-28T13:21:44.958Z,6.57
2019-03-28T13:24:13.408Z,6.80
2019-03-28T13:26:41.768Z,6.60
2019-03-28T13:29:10.228Z,6.70
2019-03-28T13:31:38.543Z,6.87
2019-03-28T13:34:06.916Z,7.07
2019-03-28T13:36:35.187Z,6.23
2019-03-28T13:39:03.628Z,6.07
2019-03-28T13:41:31.973Z,6.57
2019-03-28T13:44:00.269Z,6.77
2019-03-28T13:46:28.531Z,6.47
2019-03-28T13:48:56.825Z,6.20
2019-03-28T13:51:25.110Z,5.90
2019-03-28T13:53:53.928Z,6.93
2019-03-28T13:56:22.894Z,7.10
2019-03-28T13:58:51.519Z,7.30
2019-03-28T14:01:19.828Z,7.33
2019-03-28T14:03:48.128Z,7.40
2019-03-28T14:06:16.478Z,8.23
2019-03-28T14:08:44.856Z,7.33
2019-03-28T14:11:13.762Z,7.47
2019-03-28T14:13:42.049Z,7.80
2019-03-28T14:16:10.511Z,8.00
2019-03-28T14:18:38.870Z,7.97
2019-03-28T14:21:07.210Z,8.47
2019-03-28T14:23:35.479Z,7.57
2019-03-28T14:26:03.771Z,8.23
2019-03-28T14:28:32.050Z,8.00
2019-03-28T14:31:01.001Z,7.80
2019-03-28T14:33:29.395Z,8.17
2019-03-28T14:35:57.696Z,7.43
2019-03-28T14:38:25.972Z,8.17
2019-03-28T14:40:54.604Z,8.20
2019-03-28T14:43:23.143Z,8.30
2019-03-28T14:45:51.436Z,9.10
2019-03-28T14:48:19.718Z,9.73
2019-03-28T14:50:48.019Z,9.77
2019-03-28T14:53:16.377Z,10.27
2019-03-28T14:55:44.682Z,9.93
2019-03-28T14:58:12.966Z,10.03
2019-03-28T15:00:47.852Z,9.03
2019-03-28T15:03:25.540Z,9.53
2019-03-28T15:05:46.436Z,9.47
2019-03-28T15:08:14.739Z,8.70
2019-03-28T15:10:43.019Z,8.80
2019-03-28T15:13:11.382Z,8.73
2019-03-28T15:15:39.668Z,9.57
2019-03-28T15:18:07.972Z,9.67
2019-03-28T15:20:36.250Z,9.63
2019-03-28T15:23:04.564Z,11.23
2019-03-28T15:25:32.926Z,11.73
2019-03-28T15:28:01.299Z,11.93
2019-03-28T15:30:29.892Z,11.40
2019-03-28T15:32:58.355Z,11.00
2019-03-28T15:35:26.647Z,9.60
2019-03-28T15:37:55.023Z,8.67
2019-03-28T15:40:23.306Z,7.93
2019-03-28T15:42:51.587Z,6.17
2019-03-28T15:45:19.879Z,5.83
2019-03-28T15:47:48.150Z,5.33
2019-03-28T15:50:16.441Z,5.23
2019-03-28T15:52:44.719Z,4.90
2019-03-28T15:55:14.657Z,5.30
2019-03-28T15:57:43.015Z,5.17
2019-03-28T16:00:11.386Z,4.90
2019-03-28T16:02:39.800Z,5.17
2019-03-28T16:05:08.113Z,5.60
2019-03-28T16:07:36.403Z,4.80
2019-03-28T16:10:06.688Z,5.40
2019-03-28T16:12:34.983Z,4.80
2019-03-28T16:15:03.840Z,4.10
2019-03-28T16:17:32.205Z,4.20
2019-03-28T16:20:00.481Z,3.73
2019-03-28T16:22:28.779Z,3.83
2019-03-28T16:24:57.058Z,3.57
2019-03-28T16:27:25.365Z,3.93
2019-03-28T16:29:54.468Z,3.50
2019-03-28T16:32:22.921Z,3.90
2019-03-28T16:34:51.204Z,4.37
2019-03-28T16:37:19.621Z,3.77
2019-03-28T16:39:49.965Z,3.53
2019-03-28T16:42:17.915Z,3.57
2019-03-28T16:44:46.212Z,3.60
2019-03-28T16:47:14.486Z,3.80
2019-03-28T16:49:42.954Z,4.20
2019-03-28T16:52:12.929Z,4.07
2019-03-28T16:54:41.378Z,3.53
2019-03-28T16:57:09.934Z,3.13
2019-03-28T16:59:38.952Z,3.23
2019-03-28T17:02:07.303Z,3.37
2019-03-28T17:04:35.663Z,3.50
2019-03-28T17:07:03.927Z,3.43
2019-03-28T17:09:32.248Z,3.00
2019-03-28T17:12:00.519Z,3.40
2019-03-28T17:14:28.788Z,2.90
2019-03-28T17:16:57.073Z,2.93
2019-03-28T17:19:25.792Z,3.30
2019-03-28T17:21:54.121Z,3.27
2019-03-28T17:24:22.392Z,3.00
2019-03-28T17:26:50.679Z,2.70
2019-03-28T17:29:18.956Z,2.80
2019-03-28T17:31:47.331Z,3.30
2019-03-28T17:34:15.606Z,3.77
2019-03-28T17:36:43.905Z,3.70
2019-03-28T17:39:12.181Z,4.27
2019-03-28T17:41:40.465Z,4.47
2019-03-28T17:44:08.855Z,4.13
2019-03-28T17:46:37.206Z,4.50
2019-03-28T17:49:05.667Z,4.93
2019-03-28T17:51:33.955Z,4.73
2019-03-28T17:54:03.160Z,4.70
2019-03-28T17:56:31.587Z,4.23
2019-03-28T17:58:59.894Z,4.70
2019-03-28T18:01:28.185Z,4.60
2019-03-28T18:03:56.565Z,4.07
2019-03-28T18:06:24.843Z,3.93
2019-03-28T18:08:53.159Z,4.03
2019-03-28T18:11:21.850Z,3.90
2019-03-28T18:13:50.669Z,3.40
2019-03-28T18:16:18.983Z,3.50
2019-03-28T18:18:47.458Z,4.40
2019-03-28T18:21:15.791Z,3.60
2019-03-28T18:23:44.471Z,3.50
2019-03-28T18:26:12.745Z,3.37
2019-03-28T18:28:41.116Z,3.77
2019-03-28T18:31:09.469Z,3.87
2019-03-28T18:33:37.745Z,3.33
2019-03-28T18:36:06.041Z,3.70
2019-03-28T18:38:34.386Z,3.40
2019-03-28T18:41:02.718Z,3.13
2019-03-28T18:43:31.073Z,3.30
2019-03-28T18:45:59.948Z,3.60
2019-03-28T18:48:35.811Z,3.43
2019-03-28T18:50:58.544Z,3.30
2019-03-28T18:53:26.992Z,3.33
2019-03-28T18:55:55.858Z,3.57
2019-03-28T18:58:24.487Z,3.50
2019-03-28T19:00:52.880Z,3.13
2019-03-28T19:03:21.268Z,3.07
2019-03-28T19:05:49.614Z,3.23
2019-03-28T19:08:17.994Z,3.37
2019-03-28T19:10:46.340Z,3.27
2019-03-28T19:13:14.646Z,2.83
2019-03-28T19:15:42.943Z,3.30
2019-03-28T19:18:12.856Z,3.50
2019-03-28T19:20:41.171Z,3.20
2019-03-28T19:23:09.455Z,2.90
2019-03-28T19:25:37.830Z,3.37
2019-03-28T19:28:07.679Z,3.30
2019-03-28T19:30:36.422Z,3.30
2019-03-28T19:33:06.754Z,3.50
2019-03-28T19:35:35.000Z,3.33
2019-03-28T19:38:04.336Z,3.63
2019-03-28T19:40:32.902Z,3.17
2019-03-28T19:43:01.416Z,3.60
2019-03-28T19:45:35.840Z,3.10
2019-03-28T19:48:04.048Z,3.23
2019-03-28T19:50:32.423Z,3.17
2019-03-28T19:53:00.691Z,3.47
2019-03-28T19:55:29.035Z,3.37
2019-03-28T19:57:57.391Z,3.50
2019-03-28T20:00:25.727Z,3.27
2019-03-28T20:02:54.034Z,3.43
2019-03-28T20:05:22.382Z,3.27
2019-03-28T20:07:50.683Z,3.30
2019-03-28T20:10:19.037Z,3.40
2019-03-28T20:12:47.390Z,3.43
2019-03-28T20:15:15.676Z,2.67
2019-03-28T20:17:44.073Z,3.10
2019-03-28T20:20:12.590Z,2.77
2019-03-28T20:22:40.874Z,3.03
2019-03-28T20:25:09.231Z,2.80
2019-03-28T20:27:37.585Z,2.70
2019-03-28T20:30:08.689Z,2.87
2019-03-28T20:32:37.797Z,2.90
2019-03-28T20:35:06.313Z,2.93
2019-03-28T20:37:34.602Z,2.97
2019-03-28T20:40:02.983Z,3.00
2019-03-28T20:42:31.267Z,2.70
2019-03-28T20:45:20.182Z,2.77
2019-03-28T20:47:48.534Z,2.83
2019-03-28T20:50:16.839Z,2.70
2019-03-28T20:52:45.111Z,2.73
2019-03-28T20:55:13.413Z,3.00
2019-03-28T20:57:41.691Z,2.57
2019-03-28T21:00:10.069Z,2.57
2019-03-28T21:02:38.337Z,2.87
2019-03-28T21:05:06.982Z,2.90
2019-03-28T21:07:37.214Z,2.73
2019-03-28T21:10:09.705Z,2.30
2019-03-28T21:12:38.008Z,2.67
2019-03-28T21:15:07.557Z,2.63
2019-03-28T21:17:35.835Z,2.20
2019-03-28T21:20:06.508Z,2.70
2019-03-28T21:22:34.884Z,2.77
2019-03-28T21:25:03.682Z,2.60
2019-03-28T21:27:32.940Z,2.50
2019-03-28T21:30:01.354Z,2.60
2019-03-28T21:32:29.628Z,2.20
2019-03-28T21:34:57.987Z,2.47
2019-03-28T21:37:26.262Z,2.50
2019-03-28T21:39:54.548Z,2.20
2019-03-28T21:42:22.828Z,2.37
2019-03-28T21:44:51.118Z,2.10
2019-03-28T21:47:19.394Z,2.50
2019-03-28T21:49:47.684Z,2.20
2019-03-28T21:52:15.959Z,2.03
2019-03-28T21:54:44.258Z,2.03
2019-03-28T21:57:14.622Z,2.43
2019-03-28T21:59:42.620Z,2.30
2019-03-28T22:02:10.963Z,2.47
2019-03-28T22:04:39.257Z,2.30
2019-03-28T22:07:07.608Z,2.20
2019-03-28T22:09:35.912Z,2.30
2019-03-28T22:12:04.415Z,1.93
2019-03-28T22:14:32.705Z,2.17
2019-03-28T22:17:01.058Z,1.90
2019-03-28T22:19:29.347Z,2.20
2019-03-28T22:21:57.625Z,1.83
2019-03-28T22:24:25.925Z,2.40
2019-03-28T22:26:54.213Z,2.03
2019-03-28T22:29:22.511Z,2.00
2019-03-28T22:31:50.779Z,1.87
2019-03-28T22:34:19.075Z,2.00
2019-03-28T22:36:57.356Z,2.03
2019-03-28T22:39:17.357Z,1.80
2019-03-28T22:41:45.721Z,1.83
2019-03-28T22:44:14.391Z,1.60
2019-03-28T22:46:42.772Z,1.77
2019-03-28T22:49:11.123Z,2.10
2019-03-28T22:51:39.421Z,1.80
2019-03-28T22:54:07.697Z,2.00
2019-03-28T22:56:35.985Z,1.97
2019-03-28T22:59:04.262Z,2.17
2019-03-28T23:01:32.551Z,1.90
2019-03-28T23:04:00.907Z,2.00
2019-03-28T23:06:29.259Z,2.10
2019-03-28T23:08:58.813Z,2.13
2019-03-28T23:11:27.165Z,2.00
2019-03-28T23:13:55.452Z,2.07
2019-03-28T23:16:23.743Z,1.70
2019-03-28T23:18:52.061Z,2.30
2019-03-28T23:21:20.394Z,1.90
2019-03-28T23:23:48.686Z,2.10
2019-03-28T23:26:16.968Z,2.07
2019-03-28T23:28:45.258Z,2.10
2019-03-28T23:31:13.530Z,2.00
2019-03-28T23:33:41.825Z,2.10
2019-03-28T23:36:10.093Z,2.00
2019-03-28T23:38:38.392Z,2.10
2019-03-28T23:41:06.740Z,2.07
2019-03-28T23:43:35.884Z,1.90
2019-03-28T23:46:04.487Z,1.73
2019-03-28T23:48:32.760Z,1.70
2019-03-28T23:51:01.057Z,2.03
2019-03-28T23:53:29.353Z,1.80
2019-03-28T23:55:57.744Z,1.90
2019-03-28T23:58:26.100Z,2.30
